Queen Victoria — ZCEF3 — position and weather

sailwx.info

Track history (hours):
 
Tides and Currents Weather Stations Pressure Air Temp Water Temp Dewpoint Dewpoint Depression Visibility Wind Speed Wind Dir Waves Ship Positions

Queen Victoria

Last reported at 2018-Apr-26 18:56 UTC. Time now 2018-Apr-26 19:09 UTC.
Position N 38°32' E 013°10'.

Length 294 m; draft 8 m.

Type: Passenger vessel. MMSI: 310624000.

Date/timePositionNaut miles runAvg speedWind from/ knotsBaromVisibWave heightAir tempDewpointWater temp
2018-Apr-26 18:56N 38°32' E 013°10'818.5
2018-Apr-26 18:30N 38°31' E 013°20'918.5
2018-Apr-26 18:00N 38°30' E 013°32'918.5
2018-Apr-26 17:30N 38°28' E 013°44'918.3
2018-Apr-26 17:00N 38°27' E 013°55'1018.1
2018-Apr-26 16:29N 38°26' E 014°07'918.2
2018-Apr-26 16:00N 38°24' E 014°18'918.6
2018-Apr-26 15:30N 38°23' E 014°30'1318.6
2018-Apr-26 14:49N 38°21' E 014°46'619.0
2018-Apr-26 14:31N 38°20' E 014°53'918.6
2018-Apr-26 14:00N 38°20' E 015°05'917.6
2018-Apr-26 13:30N 38°20' E 015°16'815.4
2018-Apr-26 13:00N 38°20' E 015°26'1019.3
2018-Apr-26 12:30N 38°21' E 015°39'712.0
2018-Apr-26 11:56N 38°14' E 015°38'715.0
2018-Apr-26 11:30N 38°08' E 015°36'915.7
2018-Apr-26 10:57N 37°59' E 015°36'1017.2
2018-Apr-26 10:21N 37°52' E 015°46'619.0
2018-Apr-26 10:01N 37°51' E 015°54'  
2018-Apr-24 02:21N 44°23' E 014°32'513.6
2018-Apr-24 01:58N 44°19' E 014°28'613.8
2018-Apr-24 01:30N 44°14' E 014°22'713.9
2018-Apr-24 01:00N 44°08' E 014°16'713.9
2018-Apr-24 00:30N 44°03' E 014°10'612.0
2018-Apr-23 23:59N 44°06' E 014°01'813.0
2018-Apr-23 23:22N 44°13' E 013°56'1115.3
2018-Apr-23 22:39N 44°22' E 013°48'515.8
2018-Apr-23 22:20N 44°26' E 013°44'515.9
2018-Apr-23 22:00N 44°30' E 013°39'815.9
2018-Apr-23 21:30N 44°37' E 013°33'815.9
2018-Apr-23 21:01N 44°43' E 013°27'815.9
2018-Apr-23 20:30N 44°50' E 013°20'815.7
2018-Apr-23 20:00N 44°56' E 013°13'815.6
2018-Apr-23 19:30N 45°02' E 013°06'714.1
2018-Apr-23 19:00N 45°06' E 012°59'714.4
2018-Apr-23 18:31N 45°12' E 012°52'815.0
2018-Apr-23 18:00N 45°17' E 012°45'715.0
2018-Apr-23 17:30N 45°21' E 012°35'714.0
2018-Apr-23 17:00N 45°25' E 012°27'4 7.0
2018-Apr-23 16:30N 45°25' E 012°22'3 5.3
2018-Apr-23 16:00N 45°26' E 012°18'0 0.9
2018-Apr-23 15:30N 45°26' E 012°19'0 0.0
2018-Apr-23 15:00N 45°26' E 012°19'0 0.0
2018-Apr-23 14:30N 45°26' E 012°19'0 0.0
2018-Apr-23 14:00N 45°26' E 012°19'0 0.0
2018-Apr-23 13:27N 45°26' E 012°19'0 0.0
2018-Apr-23 13:00N 45°26' E 012°19'0 0.0
2018-Apr-23 12:30N 45°26' E 012°19'0 0.0
2018-Apr-23 11:57N 45°26' E 012°19'0 0.0
2018-Apr-23 11:30N 45°26' E 012°19'0 0.0
2018-Apr-23 11:00N 45°26' E 012°19'0 0.0
2018-Apr-23 10:30N 45°26' E 012°19'0 0.0
2018-Apr-23 10:00N 45°26' E 012°19'0 0.0
2018-Apr-23 09:30N 45°26' E 012°19'0 0.0
2018-Apr-23 09:00N 45°26' E 012°19'0 0.0
2018-Apr-23 08:30N 45°26' E 012°19'0 0.0
2018-Apr-23 08:00N 45°26' E 012°19'0 0.0
2018-Apr-23 07:30N 45°26' E 012°19'0 0.0
2018-Apr-23 07:00N 45°26' E 012°19'0 0.0
2018-Apr-23 06:30N 45°26' E 012°19'0 0.0
2018-Apr-23 06:00N 45°26' E 012°19'0 1.0
2018-Apr-23 05:30N 45°26' E 012°19'2 4.8
2018-Apr-23 05:00N 45°25' E 012°22'3 6.2
2018-Apr-23 04:31N 45°25' E 012°26'5 9.4
2018-Apr-23 04:01N 45°23' E 012°32'714.0
2018-Apr-23 03:30N 45°18' E 012°39'714.1
2018-Apr-23 03:01N 45°12' E 012°45'713.2
2018-Apr-23 02:30N 45°06' E 012°49'714.6
2018-Apr-23 02:00N 44°59' E 012°53'815.1
2018-Apr-23 01:30N 44°53' E 012°58'815.6
2018-Apr-23 01:00N 44°45' E 013°02'816.0
2018-Apr-23 00:30N 44°38' E 013°05'816.2
2018-Apr-23 00:00N 44°30' E 013°09'816.4
2018-Apr-22 23:30N 44°22' E 013°12'815.7
2018-Apr-22 22:59N 44°16' E 013°19'816.3
2018-Apr-22 22:30N 44°11' E 013°27'816.2
2018-Apr-22 22:00N 44°06' E 013°37'1316.0
2018-Apr-22 21:13N 43°59' E 013°51'815.7
2018-Apr-22 20:43N 43°52' E 013°56'715.9
2018-Apr-22 20:16N 43°45' E 013°60'415.8
2018-Apr-22 20:00N 43°43' E 014°04'1015.5
2018-Apr-22 19:23N 43°37' E 014°15'35513.5
2018-Apr-21 17:10N 37°49' E 015°50'318.7
2018-Apr-21 17:00N 37°49' E 015°46'1319.0
2018-Apr-21 16:18N 37°50' E 015°29'12 1.0
2018-Apr-21 03:32N 38°02' E 015°30'113.1
2018-Apr-21 03:29N 38°03' E 015°30'612.8
2018-Apr-21 03:00N 38°08' E 015°34'713.8
2018-Apr-21 02:29N 38°15' E 015°37'510.8
2018-Apr-21 02:00N 38°20' E 015°39'713.8
2018-Apr-21 01:30N 38°20' E 015°30'815.8
2018-Apr-21 01:00N 38°20' E 015°20'1019.9
2018-Apr-21 00:30N 38°20' E 015°07'1020.3
2018-Apr-21 00:00N 38°20' E 014°54'1020.1
2018-Apr-20 23:29N 38°21' E 014°41'1020.2
2018-Apr-20 22:58N 38°22' E 014°28'1520.3
2018-Apr-20 22:14N 38°24' E 014°09'1020.0
2018-Apr-20 21:43N 38°24' E 013°56'419.9
2018-Apr-20 21:31N 38°24' E 013°51'1020.4
2018-Apr-20 21:00N 38°24' E 013°38'1020.4
2018-Apr-20 20:31N 38°25' E 013°25'1020.0
2018-Apr-20 20:01N 38°26' E 013°12'1019.4
2018-Apr-20 19:31N 38°26' E 012°60'19620.7
2018-Apr-20 10:04N 38°34' E 008°50'321.9
2018-Apr-20 09:54N 38°34' E 008°46'1122.1
2018-Apr-20 09:26N 38°35' E 008°32'24622.2
2018-Apr-19 22:20N 38°59' E 003°18'822.3
2018-Apr-19 22:00N 38°59' E 003°08'1722.3
2018-Apr-19 21:15N 39°01' E 002°47'622.3
2018-Apr-19 21:00N 39°03' E 002°40'14021.8
2018-Apr-19 14:36N 39°26' W 000°18'1 8.6
2018-Apr-19 14:30N 39°26' W 000°19'1 2.2
2018-Apr-19 14:00N 39°27' W 000°19'0 0.0
2018-Apr-19 13:27N 39°27' W 000°19'0 0.0
2018-Apr-19 12:51N 39°27' W 000°19'0 0.0
2018-Apr-19 12:21N 39°27' W 000°19'0 0.0
2018-Apr-19 11:57N 39°27' W 000°19'0 0.0
2018-Apr-19 11:21N 39°27' W 000°19'0 0.0
2018-Apr-19 10:51N 39°27' W 000°19'0 0.0
2018-Apr-19 10:27N 39°27' W 000°19'0 0.0
2018-Apr-19 09:54N 39°27' W 000°19'0 0.0
2018-Apr-19 09:21N 39°27' W 000°19'0 0.0
2018-Apr-19 08:57N 39°27' W 000°19'0 0.0
2018-Apr-19 08:30N 39°27' W 000°19'0 0.0
2018-Apr-19 07:57N 39°27' W 000°19'0 0.0
2018-Apr-19 07:30N 39°27' W 000°19'0 0.0
2018-Apr-19 07:00N 39°27' W 000°19'0 0.0
2018-Apr-19 06:27N 39°27' W 000°19'0 0.0
2018-Apr-19 05:51N 39°27' W 000°19'0 0.3
2018-Apr-19 05:30N 39°27' W 000°19'1 1.5
2018-Apr-19 05:00N 39°26' W 000°19'3 6.5
2018-Apr-19 04:30N 39°25' W 000°15'7915.6
2018-Apr-18 23:28N 38°07' W 000°02'1222.1
2018-Apr-18 22:56N 37°57' W 000°11'1022.0
2018-Apr-18 22:30N 37°49' W 000°17'2022.2
2018-Apr-18 21:35N 37°32' W 000°32'222.4
2018-Apr-18 21:30N 37°31' W 000°33'1122.4
2018-Apr-18 21:00N 37°23' W 000°44'1122.0
2018-Apr-18 20:29N 37°15' W 000°54'1021.5
2018-Apr-18 20:00N 37°09' W 001°04'21220.7
2018-Apr-18 09:47N 35°60' W 005°14'621.0
2018-Apr-18 09:30N 35°58' W 005°20'17219.9
2018-Apr-18 00:50N 36°28' W 008°51'920.8
2018-Apr-18 00:24N 36°30' W 009°02'1120.9
2018-Apr-17 23:53N 36°33' W 009°15'820.7
2018-Apr-17 23:31N 36°38' W 009°23'1020.9
2018-Apr-17 23:01N 36°45' W 009°32'1220.2
2018-Apr-17 22:25N 36°57' W 009°35'921.2
2018-Apr-17 22:01N 37°05' W 009°38'1121.2
2018-Apr-17 21:31N 37°15' W 009°41'1121.7
2018-Apr-17 21:00N 37°26' W 009°44'1121.5
2018-Apr-17 20:31N 37°36' W 009°47'1121.2
2018-Apr-17 20:01N 37°46' W 009°51'1121.2
2018-Apr-17 19:30N 37°57' W 009°54'1021.0
2018-Apr-17 19:01N 38°07' W 009°58'1020.6
2018-Apr-17 18:31N 38°17' W 010°01'1020.8
2018-Apr-17 18:00N 38°27' W 010°04'1121.2
2018-Apr-17 17:30N 38°37' W 010°05'1121.2
2018-Apr-17 17:00N 38°48' W 010°07'1020.9
2018-Apr-17 16:31N 38°58' W 010°08'1020.4
2018-Apr-17 16:01N 39°08' W 010°08'1020.3
2018-Apr-17 15:30N 39°19' W 010°08'1020.6
2018-Apr-17 15:00N 39°29' W 010°08'1020.8
2018-Apr-17 14:31N 39°39' W 010°08'  
Track history (hours):
 
Tides and Currents Weather Stations Pressure Air Temp Water Temp Dewpoint Dewpoint Depression Visibility Wind Speed Wind Dir Waves Ship Positions

Queen Victoria

Last reported at 2018-Apr-26 18:56 UTC. Time now 2018-Apr-26 19:09 UTC.
Position N 38°32' E 013°10'.

Length 294 m; draft 8 m.

Type: Passenger vessel. MMSI: 310624000.

Date/timePositionNaut miles runAvg speedWind from/ knotsBaromVisibWave heightAir tempDewpointWater temp
2018-Apr-26 18:56N 38°32' E 013°10'818.5
2018-Apr-26 18:30N 38°31' E 013°20'918.5
2018-Apr-26 18:00N 38°30' E 013°32'918.5
2018-Apr-26 17:30N 38°28' E 013°44'918.3
2018-Apr-26 17:00N 38°27' E 013°55'1018.1
2018-Apr-26 16:29N 38°26' E 014°07'918.2
2018-Apr-26 16:00N 38°24' E 014°18'918.6
2018-Apr-26 15:30N 38°23' E 014°30'1318.6
2018-Apr-26 14:49N 38°21' E 014°46'619.0
2018-Apr-26 14:31N 38°20' E 014°53'918.6
2018-Apr-26 14:00N 38°20' E 015°05'917.6
2018-Apr-26 13:30N 38°20' E 015°16'815.4
2018-Apr-26 13:00N 38°20' E 015°26'1019.3
2018-Apr-26 12:30N 38°21' E 015°39'712.0
2018-Apr-26 11:56N 38°14' E 015°38'715.0
2018-Apr-26 11:30N 38°08' E 015°36'915.7
2018-Apr-26 10:57N 37°59' E 015°36'1017.2
2018-Apr-26 10:21N 37°52' E 015°46'619.0
2018-Apr-26 10:01N 37°51' E 015°54'  
2018-Apr-24 02:21N 44°23' E 014°32'513.6
2018-Apr-24 01:58N 44°19' E 014°28'613.8
2018-Apr-24 01:30N 44°14' E 014°22'713.9
2018-Apr-24 01:00N 44°08' E 014°16'713.9
2018-Apr-24 00:30N 44°03' E 014°10'612.0
2018-Apr-23 23:59N 44°06' E 014°01'813.0
2018-Apr-23 23:22N 44°13' E 013°56'1115.3
2018-Apr-23 22:39N 44°22' E 013°48'515.8
2018-Apr-23 22:20N 44°26' E 013°44'515.9
2018-Apr-23 22:00N 44°30' E 013°39'815.9
2018-Apr-23 21:30N 44°37' E 013°33'815.9
2018-Apr-23 21:01N 44°43' E 013°27'815.9
2018-Apr-23 20:30N 44°50' E 013°20'815.7
2018-Apr-23 20:00N 44°56' E 013°13'815.6
2018-Apr-23 19:30N 45°02' E 013°06'714.1
2018-Apr-23 19:00N 45°06' E 012°59'714.4
2018-Apr-23 18:31N 45°12' E 012°52'815.0
2018-Apr-23 18:00N 45°17' E 012°45'715.0
2018-Apr-23 17:30N 45°21' E 012°35'714.0
2018-Apr-23 17:00N 45°25' E 012°27'4 7.0
2018-Apr-23 16:30N 45°25' E 012°22'3 5.3
2018-Apr-23 16:00N 45°26' E 012°18'0 0.9
2018-Apr-23 15:30N 45°26' E 012°19'0 0.0
2018-Apr-23 15:00N 45°26' E 012°19'0 0.0
2018-Apr-23 14:30N 45°26' E 012°19'0 0.0
2018-Apr-23 14:00N 45°26' E 012°19'0 0.0
2018-Apr-23 13:27N 45°26' E 012°19'0 0.0
2018-Apr-23 13:00N 45°26' E 012°19'0 0.0
2018-Apr-23 12:30N 45°26' E 012°19'0 0.0
2018-Apr-23 11:57N 45°26' E 012°19'0 0.0
2018-Apr-23 11:30N 45°26' E 012°19'0 0.0
2018-Apr-23 11:00N 45°26' E 012°19'0 0.0
2018-Apr-23 10:30N 45°26' E 012°19'0 0.0
2018-Apr-23 10:00N 45°26' E 012°19'0 0.0
2018-Apr-23 09:30N 45°26' E 012°19'0 0.0
2018-Apr-23 09:00N 45°26' E 012°19'0 0.0
2018-Apr-23 08:30N 45°26' E 012°19'0 0.0
2018-Apr-23 08:00N 45°26' E 012°19'0 0.0
2018-Apr-23 07:30N 45°26' E 012°19'0 0.0
2018-Apr-23 07:00N 45°26' E 012°19'0 0.0
2018-Apr-23 06:30N 45°26' E 012°19'0 0.0
2018-Apr-23 06:00N 45°26' E 012°19'0 1.0
2018-Apr-23 05:30N 45°26' E 012°19'2 4.8
2018-Apr-23 05:00N 45°25' E 012°22'3 6.2
2018-Apr-23 04:31N 45°25' E 012°26'5 9.4
2018-Apr-23 04:01N 45°23' E 012°32'714.0
2018-Apr-23 03:30N 45°18' E 012°39'714.1
2018-Apr-23 03:01N 45°12' E 012°45'713.2
2018-Apr-23 02:30N 45°06' E 012°49'714.6
2018-Apr-23 02:00N 44°59' E 012°53'815.1
2018-Apr-23 01:30N 44°53' E 012°58'815.6
2018-Apr-23 01:00N 44°45' E 013°02'816.0
2018-Apr-23 00:30N 44°38' E 013°05'816.2
2018-Apr-23 00:00N 44°30' E 013°09'816.4
2018-Apr-22 23:30N 44°22' E 013°12'815.7
2018-Apr-22 22:59N 44°16' E 013°19'816.3
2018-Apr-22 22:30N 44°11' E 013°27'816.2
2018-Apr-22 22:00N 44°06' E 013°37'1316.0
2018-Apr-22 21:13N 43°59' E 013°51'815.7
2018-Apr-22 20:43N 43°52' E 013°56'715.9
2018-Apr-22 20:16N 43°45' E 013°60'415.8
2018-Apr-22 20:00N 43°43' E 014°04'1015.5
2018-Apr-22 19:23N 43°37' E 014°15'35513.5
2018-Apr-21 17:10N 37°49' E 015°50'318.7
2018-Apr-21 17:00N 37°49' E 015°46'1319.0
2018-Apr-21 16:18N 37°50' E 015°29'12 1.0
2018-Apr-21 03:32N 38°02' E 015°30'113.1
2018-Apr-21 03:29N 38°03' E 015°30'612.8
2018-Apr-21 03:00N 38°08' E 015°34'713.8
2018-Apr-21 02:29N 38°15' E 015°37'510.8
2018-Apr-21 02:00N 38°20' E 015°39'713.8
2018-Apr-21 01:30N 38°20' E 015°30'815.8
2018-Apr-21 01:00N 38°20' E 015°20'1019.9
2018-Apr-21 00:30N 38°20' E 015°07'1020.3
2018-Apr-21 00:00N 38°20' E 014°54'1020.1
2018-Apr-20 23:29N 38°21' E 014°41'1020.2
2018-Apr-20 22:58N 38°22' E 014°28'1520.3
2018-Apr-20 22:14N 38°24' E 014°09'1020.0
2018-Apr-20 21:43N 38°24' E 013°56'419.9
2018-Apr-20 21:31N 38°24' E 013°51'1020.4
2018-Apr-20 21:00N 38°24' E 013°38'1020.4
2018-Apr-20 20:31N 38°25' E 013°25'1020.0
2018-Apr-20 20:01N 38°26' E 013°12'1019.4
2018-Apr-20 19:31N 38°26' E 012°60'19620.7
2018-Apr-20 10:04N 38°34' E 008°50'321.9
2018-Apr-20 09:54N 38°34' E 008°46'1122.1
2018-Apr-20 09:26N 38°35' E 008°32'24622.2
2018-Apr-19 22:20N 38°59' E 003°18'822.3
2018-Apr-19 22:00N 38°59' E 003°08'1722.3
2018-Apr-19 21:15N 39°01' E 002°47'622.3
2018-Apr-19 21:00N 39°03' E 002°40'14021.8
2018-Apr-19 14:36N 39°26' W 000°18'1 8.6
2018-Apr-19 14:30N 39°26' W 000°19'1 2.2
2018-Apr-19 14:00N 39°27' W 000°19'0 0.0
2018-Apr-19 13:27N 39°27' W 000°19'0 0.0
2018-Apr-19 12:51N 39°27' W 000°19'0 0.0
2018-Apr-19 12:21N 39°27' W 000°19'0 0.0
2018-Apr-19 11:57N 39°27' W 000°19'0 0.0
2018-Apr-19 11:21N 39°27' W 000°19'0 0.0
2018-Apr-19 10:51N 39°27' W 000°19'0 0.0
2018-Apr-19 10:27N 39°27' W 000°19'0 0.0
2018-Apr-19 09:54N 39°27' W 000°19'0 0.0
2018-Apr-19 09:21N 39°27' W 000°19'0 0.0
2018-Apr-19 08:57N 39°27' W 000°19'0 0.0
2018-Apr-19 08:30N 39°27' W 000°19'0 0.0
2018-Apr-19 07:57N 39°27' W 000°19'0 0.0
2018-Apr-19 07:30N 39°27' W 000°19'0 0.0
2018-Apr-19 07:00N 39°27' W 000°19'0 0.0
2018-Apr-19 06:27N 39°27' W 000°19'0 0.0
2018-Apr-19 05:51N 39°27' W 000°19'0 0.3
2018-Apr-19 05:30N 39°27' W 000°19'1 1.5
2018-Apr-19 05:00N 39°26' W 000°19'3 6.5
2018-Apr-19 04:30N 39°25' W 000°15'7915.6
2018-Apr-18 23:28N 38°07' W 000°02'1222.1
2018-Apr-18 22:56N 37°57' W 000°11'1022.0
2018-Apr-18 22:30N 37°49' W 000°17'2022.2
2018-Apr-18 21:35N 37°32' W 000°32'222.4
2018-Apr-18 21:30N 37°31' W 000°33'1122.4
2018-Apr-18 21:00N 37°23' W 000°44'1122.0
2018-Apr-18 20:29N 37°15' W 000°54'1021.5
2018-Apr-18 20:00N 37°09' W 001°04'21220.7
2018-Apr-18 09:47N 35°60' W 005°14'621.0
2018-Apr-18 09:30N 35°58' W 005°20'17219.9
2018-Apr-18 00:50N 36°28' W 008°51'920.8
2018-Apr-18 00:24N 36°30' W 009°02'1120.9
2018-Apr-17 23:53N 36°33' W 009°15'820.7
2018-Apr-17 23:31N 36°38' W 009°23'1020.9
2018-Apr-17 23:01N 36°45' W 009°32'1220.2
2018-Apr-17 22:25N 36°57' W 009°35'921.2
2018-Apr-17 22:01N 37°05' W 009°38'1121.2
2018-Apr-17 21:31N 37°15' W 009°41'1121.7
2018-Apr-17 21:00N 37°26' W 009°44'1121.5
2018-Apr-17 20:31N 37°36' W 009°47'1121.2
2018-Apr-17 20:01N 37°46' W 009°51'1121.2
2018-Apr-17 19:30N 37°57' W 009°54'1021.0
2018-Apr-17 19:01N 38°07' W 009°58'1020.6
2018-Apr-17 18:31N 38°17' W 010°01'1020.8
2018-Apr-17 18:00N 38°27' W 010°04'1121.2
2018-Apr-17 17:30N 38°37' W 010°05'1121.2
2018-Apr-17 17:00N 38°48' W 010°07'1020.9
2018-Apr-17 16:31N 38°58' W 010°08'1020.4
2018-Apr-17 16:01N 39°08' W 010°08'1020.3
2018-Apr-17 15:30N 39°19' W 010°08'1020.6
2018-Apr-17 15:00N 39°29' W 010°08'1020.8
2018-Apr-17 14:31N 39°39' W 010°08'  

Dump ship's entire track history